Station: CLARE AWS

  Atmospheric Gas Attenuation - ITU Rec 676-11   --------------- db/100km ---------------
Date Time Temp RH % AH g/m3 Dew Point Wind Direction Speed kph Gust kph Barometer mB Rainfall Since 9am 24GHz 47GHz 76GHz 122GHz 134GHz 241GHz
22 12:00 21.6 80 15.17 18 9 24 1013.5 3.6 33.1 34.5 62.7 165.5 176.2 611.3
22 11:50 21.1 84 15.48 18.3 7 9 1013.5 3.6 33.8 35.2 64.5 170.4 182.0 631.3
22 11:40 20.9 84 15.3 18.1 6 7 1013.6 3.6 33.5 35.0 63.8 168.6 179.8 623.7
22 11:30 20.7 82 14.76 17.5 9 17 1013.6 3.6 32.3 34.1 61.6 162.6 172.3 597.5
22 11:20 20.6 82 14.67 17.4 11 15 1013.9 3.4 32.1 34.0 61.3 161.8 171.3 593.8
22 11:10 20.7 82 14.76 17.5 13 15 1013.8 3.4 32.3 34.1 61.6 162.6 172.3 597.6
22 11:00 20.5 86 15.3 18.1 11 19 1013.7 3.4 33.5 35.2 64.2 169.5 180.8 627.0
22 10:50 20.3 86 15.12 17.9 11 13 1014 3.4 33.1 34.9 63.6 167.8 178.6 619.4
22 10:40 20.7 83 14.94 17.7 11 19 1014.2 2.8 32.7 34.4 62.4 164.8 175.0 607.0
22 10:30 21.1 82 15.11 17.9 9 15 1014 1.8 33.0 34.6 62.8 166.0 176.6 612.5
22 10:20 21.3 83 15.47 18.3 7 9 1013.9 1.2 33.8 35.1 64.3 169.8 181.4 629.3
22 10:10 21.7 79 15.07 17.9 9 11 1013.9 0.6 32.9 34.3 62.2 164.2 174.6 605.6
22 10:00 21.8 79 15.16 18 11 19 1013.6 0.2 33.1 34.4 62.5 165.0 175.6 609.2
22 09:50 21.5 83 15.65 18.5 9 13 1013.8 0.2 34.2 35.4 64.9 171.6 183.6 636.9
22 09:40 21.3 84 15.66 18.5 7 9 1013.9 0.2 34.2 35.5 65.2 172.1 184.2 639.1
22 09:30 21.2 82 15.2 18 9 17 1013.9 0.2 33.2 34.7 63.2 166.8 177.7 616.2
22 09:20 21.4 80 15 17.8 11 15 1014.3 0.2 32.8 34.3 62.1 164.1 174.3 604.6
22 09:10 21.6 77 14.6 17.4 15 20 1014.4 0.2 31.9 33.5 60.2 158.9 168.1 582.8
22 09:00 22.7 69 13.94 16.7 15 26 1014.2 0 30.4 31.9 56.5 149.1 156.4 542.2
22 08:50 23.1 65 13.44 16.2 17 26 1014.3 0 29.3 30.9 54.1 142.8 148.7 515.5
22 08:40 23.9 59 12.76 15.4 15 20 1014.2 0 27.8 29.5 50.8 133.9 138.1 478.5
22 08:30 25.8 43 10.35 12.3 17 30 1013.7 0 22.7 25.2 40.5 106.5 104.9 362.6
22 08:20 26 41 9.98 11.7 15 24 1013.6 0 21.9 24.6 39.1 102.6 100.2 346.3
22 08:10 26.3 38 9.41 11.2 19 26 1013.4 0 20.7 23.7 36.9 96.9 93.2 321.9
22 08:00 26.5 39 9.76 11.4 17 32 1013.2 0 21.4 24.1 38.0 99.9 97.0 335.2
22 07:50 26.6 39 9.82 11.5 17 20 1013.2 0 21.5 24.2 38.2 100.3 97.6 337.2
22 07:40 26.2 39 9.6 11.2 19 22 1013.1 0 21.1 24.0 37.6 98.7 95.5 329.9
22 07:30 26 39 9.49 11 17 28 1012.9 0 20.9 23.9 37.3 97.9 94.5 326.2
22 07:20 25.9 39 9.44 10.9 13 17 1012.9 0 20.8 23.8 37.2 97.6 94.0 324.5
22 07:10 25.9 39 9.44 10.9 15 22 1012.8 0 20.8 23.8 37.2 97.6 94.0 324.5
22 07:00 25.7 39 9.34 10.7 17 30 1012.5 0 20.6 23.7 36.9 96.9 93.0 321.2
22 06:50 25.4 41 9.65 11.2 15 19 1012.5 0 21.2 24.3 38.1 100.1 97.0 335.0
22 06:40 25.2 41 9.54 11 19 24 1012.5 0 21.0 24.1 37.8 99.3 96.0 331.3
22 06:30 25 42 9.67 11.2 15 24 1012.4 0 21.3 24.4 38.4 100.8 97.7 337.5
22 06:20 24.6 43 9.68 11.2 13 15 1012.6 0 21.3 24.5 38.6 101.4 98.3 339.6
22 06:10 24.8 42 9.56 11 15 17 1012.6 0 21.1 24.3 38.1 100.0 96.7 333.8
22 06:00 25 40 9.21 10.5 15 30 1012.4 0 20.3 23.7 36.7 96.5 92.3 318.7
22 05:50 25.1 39 9.03 10.2 17 20 1012.3 0 20.0 23.4 36.1 94.6 90.1 311.0
22 05:40 25.2 39 9.08 10.3 20 28 1012.3 0 20.1 23.5 36.2 95.0 90.6 312.6
22 05:30 25.1 39 9.03 10.2 19 30 1012 0 20.0 23.4 36.0 94.6 90.1 310.9
22 05:20 25 39 8.98 10.1 20 26 1012.1 0 19.9 23.4 35.9 94.3 89.7 309.3
22 05:10 25.1 40 9.26 10.6 17 22 1012 0 20.4 23.8 36.9 96.8 92.8 320.2
22 04:50 25.3 39 9.13 10.4 17 24 1011.7 0 20.2 23.5 36.3 95.3 91.0 314.1
22 04:40 25.4 38 8.95 10.1 20 24 1011.7 0 19.8 23.2 35.6 93.5 88.8 306.5
22 04:30 25.4 38 8.95 10.1 19 28 1011.7 0 19.8 23.2 35.6 93.5 88.8 306.5
22 04:20 25.4 40 9.42 10.8 17 20 1012.1 0 20.8 23.9 37.3 97.9 94.3 325.5
22 04:10 25.1 41 9.49 10.9 15 20 1012.1 0 20.9 24.1 37.7 98.9 95.5 329.6
22 04:00 25.1 42 9.72 11.3 20 33 1012 0 21.4 24.4 38.5 101.1 98.1 339.0
22 03:50 25.9 37 8.96 10.1 26 37 1012.3 0 19.8 23.1 35.5 93.1 88.5 305.1
22 03:40 25.8 38 9.15 10.4 24 32 1012.3 0 20.2 23.4 36.2 94.9 90.7 313.1
22 03:30 26.1 37 9.06 10.3 20 35 1012.3 0 20.0 23.2 35.7 93.8 89.4 308.4
22 03:20 26.3 37 9.16 10.5 26 39 1012.4 0 20.2 23.3 36.0 94.5 90.3 311.6
22 03:10 26.4 36 8.96 10.1 26 39 1012.4 0 19.8 23.0 35.3 92.5 87.9 303.3
22 03:00 26.6 36 9.06 10.3 24 41 1012.5 0 19.9 23.1 35.5 93.2 88.8 306.5
22 02:50 26.6 36 9.06 10.3 24 37 1012.7 0 19.9 23.1 35.5 93.2 88.8 306.6
22 02:40 26.7 36 9.11 10.4 24 33 1012.9 0 20.0 23.2 35.7 93.6 89.3 308.2
22 02:30 26.6 36 9.06 10.3 20 33 1012.8 0 19.9 23.1 35.5 93.2 88.9 306.6
22 02:20 26.7 36 9.11 10.4 20 32 1012.9 0 20.0 23.2 35.7 93.6 89.3 308.2
22 02:10 26.8 36 9.16 10.5 26 32 1013 0 20.1 23.2 35.8 94.0 89.8 309.9
22 02:00 26.8 36 9.16 10.5 24 43 1013 0 20.1 23.2 35.8 94.0 89.8 309.9
22 01:50 26.9 36 9.21 10.6 33 41 1013.1 0 20.2 23.3 35.9 94.3 90.2 311.5
22 01:40 27 36 9.27 10.7 22 30 1013.2 0 20.4 23.3 36.1 94.7 90.8 313.5
22 01:30 27.1 36 9.32 10.8 20 33 1013.2 0 20.5 23.4 36.2 95.1 91.3 315.1
22 01:20 27.1 35 9.06 10.7 17 24 1013.4 0 19.9 23.0 35.3 92.7 88.4 304.9
22 01:10 27.2 36 9.37 10.8 20 24 1013.5 0 20.6 23.4 36.4 95.5 91.7 316.8
22 01:00 27.3 36 9.42 10.9 20 35 1013.5 0 20.7 23.5 36.5 95.8 92.2 318.4
22 00:50 27.3 36 9.42 10.9 24 35 1013.6 0 20.7 23.5 36.5 95.8 92.2 318.4
22 00:40 27.4 37 9.74 11.4 19 28 1013.6 0 21.3 23.9 37.6 98.7 95.7 330.8
22 00:30 27.5 36 9.53 11.1 20 32 1013.5 0 20.9 23.6 36.8 96.6 93.2 322.0
22 00:20 27.5 36 9.53 11.1 19 24 1013.7 0 20.9 23.6 36.8 96.6 93.2 322.0
22 00:10 27.7 36 9.63 11.3 17 20 1013.7 0 21.1 23.7 37.0 97.3 94.1 325.2
22 00:00 27.8 36 9.68 11.4 20 37 1013.6 0 21.2 23.7 37.2 97.6 94.6 326.8
21 23:50 27.8 36 9.68 11.4 19 22 1013.7 0 21.2 23.7 37.2 97.6 94.6 326.8
21 23:40 27.8 36 9.68 11.4 19 22 1013.8 0 21.2 23.7 37.2 97.6 94.6 326.8
21 23:30 27.9 36 9.74 11.5 19 33 1013.7 0 21.3 23.8 37.3 98.1 95.1 328.8
21 23:20 28 35 9.52 11.5 20 28 1013.9 0 20.8 23.4 36.5 95.9 92.6 319.7
21 23:10 28.1 36 9.84 11.6 17 24 1013.9 0 21.5 23.9 37.6 98.8 96.1 332.0
21 23:00 28.2 36 9.9 11.7 19 32 1013.8 0 21.6 23.9 37.7 99.2 96.6 334.0
21 22:50 28.2 36 9.9 11.7 17 26 1014 0 21.6 23.9 37.8 99.2 96.6 334.0
21 22:40 28.3 36 9.95 11.8 22 30 1014 0 21.7 24.0 37.9 99.5 97.1 335.6
21 22:30 28.3 36 9.95 11.8 19 32 1013.9 0 21.7 24.0 37.9 99.5 97.1 335.6
21 22:20 28.4 36 10.01 11.9 19 26 1014 0 21.8 24.0 38.0 100.0 97.6 337.6
21 22:10 28.4 36 10.01 11.9 22 33 1014 0 21.8 24.0 38.0 100.0 97.6 337.6
21 22:00 28.5 36 10.06 12 20 33 1013.8 0 21.9 24.1 38.2 100.3 98.1 339.1
21 21:50 28.5 36 10.06 12 17 26 1013.8 0 21.9 24.1 38.2 100.3 98.1 339.1
21 21:40 28.5 36 10.06 12 17 19 1013.7 0 21.9 24.1 38.2 100.3 98.1 339.1
21 21:30 28.5 36 10.06 12 17 28 1013.6 0 21.9 24.1 38.2 100.3 98.1 339.0
21 21:20 28.6 34 9.56 11.6 20 24 1013.7 0 20.9 23.3 36.4 95.6 92.3 318.9
21 21:10 28.7 35 9.89 11.7 20 26 1013.7 0 21.6 23.8 37.5 98.5 95.9 331.5
21 21:00 28.6 34 9.56 11.6 17 28 1013.5 0 20.9 23.3 36.4 95.6 92.3 318.8
21 20:50 28.8 35 9.95 11.8 19 24 1013.6 0 21.7 23.8 37.6 98.9 96.4 333.4
21 20:40 28.8 35 9.95 11.8 17 26 1013.7 0 21.7 23.8 37.6 98.9 96.4 333.5
21 20:30 29 35 10.05 12 20 33 1013.6 0 21.9 23.9 37.9 99.6 97.3 336.6
21 20:20 29.1 33 9.53 11.6 22 30 1013.6 0 20.8 23.2 36.1 94.7 91.4 315.8
21 20:10 29.2 34 9.87 11.7 15 20 1013.6 0 21.5 23.6 37.2 97.7 95.1 328.7
21 20:00 29.3 34 9.93 11.8 20 37 1013.4 0 21.6 23.7 37.3 98.1 95.6 330.6
21 19:50 29.4 34 9.98 11.9 19 24 1013.5 0 21.7 23.7 37.5 98.4 96.1 332.2
21 19:40 29.4 34 9.98 11.9 13 19 1013.4 0 21.7 23.7 37.5 98.4 96.0 332.1
21 19:30 29.5 32 9.45 11.5 19 30 1013.3 0 20.6 23.0 35.6 93.5 90.0 311.1
21 19:20 29.5 34 10.04 12 15 20 1013.4 0 21.8 23.8 37.6 98.9 96.6 334.1

Last Refresh: 22-Jan-2022 12:14:01

Bureau of Meteorology